Snowdrift, Canada
Current Conditions -  °F | °C
As of 1:00 AM on Monday 22 Dec 2014 (Local Time) from CYZF Reporting Station
Light Snow Light Snow  
Wind Chill: -8°   Ceiling: 500
Heat Index:   Visibility: 8mi
Dew Point:   Wind: 10mph
Humidity: 85%   Direction: 60°ENE
Pressure: 29.75"   Gusts: NA
Location:  62.41°N, 110.72°W
Report Text: CYZF 220800Z 06009KT 8SM -SN OVC005 M14/M16 A2975 RMK ST8 SLP096
Loading
Personal Weather Stations






























Interactive Weather Map New forecast layout! Learn more

10-Day Weather Forecast

Advertisements
Track Severe Weather on mobile